Maersk Missouri — WAHV — position and weather

sailwx.info

Track history (hours):
 
Tides and Currents Weather Stations Pressure Air Temp Water Temp Dewpoint Dewpoint Depression Visibility Wind Speed Wind Dir Waves Ship Positions

Maersk Missouri

Owner: MAERSK LINE, LIMITED, Norfolk, VA. More information available from US FCC via Universal Licensing System and Coast Guard Vessel Documentation Center.

Last reported at 2014-Oct-01 07:33 UTC. Time now 2014-Oct-02 02:34 UTC.
Position N 29°25' W 094°50'.

Type: Cargo ship. MMSI: 369708000.

Date/timePositionNaut miles runAvg speedWind from/ knotsBaromVisibWave heightAir tempDewpointWater temp
2014-Oct-01 07:33N 29°25' W 094°50'1313.2
2014-Oct-01 06:33N 29°36' W 094°57'5 5.1
2014-Oct-01 05:29N 29°41' W 095°00'0 0.0
2014-Oct-01 04:33N 29°41' W 095°00'0 0.0
2014-Oct-01 03:33N 29°41' W 095°00'0 0.0
2014-Oct-01 02:31N 29°41' W 095°00'0 0.0
2014-Oct-01 01:31N 29°41' W 095°00'0 0.0
2014-Oct-01 00:32N 29°41' W 095°00'0 0.0
2014-Sep-30 23:33N 29°41' W 095°00'0 0.0
2014-Sep-30 22:33N 29°41' W 095°00'0 0.0
2014-Sep-30 21:31N 29°41' W 095°00'0 0.0
2014-Sep-30 20:32N 29°41' W 095°00'0 0.0
2014-Sep-30 19:29N 29°41' W 095°00'0 0.0
2014-Sep-30 18:33N 29°41' W 095°00'0 0.0
2014-Sep-30 17:33N 29°41' W 095°00'0 0.0
2014-Sep-30 16:25N 29°41' W 095°00'0 0.0
2014-Sep-30 15:32N 29°41' W 095°00'0 0.0
2014-Sep-30 14:32N 29°41' W 095°00'0 0.0
2014-Sep-30 13:33N 29°41' W 095°00'0 0.0
2014-Sep-30 12:33N 29°41' W 095°00'0 0.3
2014-Sep-30 11:33N 29°41' W 095°00'5 5.5
2014-Sep-30 10:33N 29°36' W 094°57'1313.0
2014-Sep-30 09:33N 29°25' W 094°50'15215.9
2014-Sep-30 00:00N 27°54' W 092°30'10818.0 090 / 131009.027.0 1.029.024.029.0
2014-Sep-29 18:00N 26°36' W 091°06'12620.9 360 / 51010.7 5.4 0.524.023.028.9
2014-Sep-29 12:00N 25°54' W 088°54'36620.3 180 / 51010.410.8 0.527.324.028.8
2014-Sep-28 18:00N 24°18' W 082°24'12020.0 120 / 111012.727.0 1.031.321.029.4
2014-Sep-28 12:00N 24°54' W 080°18'4719.3 090 / 71013.227.0 0.527.423.029.3
2014-Sep-28 09:33N 25°39' W 080°01'1919.2
2014-Sep-28 08:33N 25°58' W 079°59'1919.2
2014-Sep-28 07:33N 26°17' W 079°58'1919.4
2014-Sep-28 06:34N 26°36' W 079°58'711.9
2014-Sep-28 06:00N 26°42' W 079°54'1432.1 070 / 71018.110.8 0.525.822.929.1
2014-Sep-28 05:34N 26°56' W 079°57'2019.4
2014-Sep-28 04:33N 27°15' W 079°58'8719.1
2014-Sep-28 00:00N 28°42' W 080°06'20518.8 090 / 71014.027.0 1.027.021.028.0
2014-Sep-27 13:05N 32°02' W 080°55'610.6
2014-Sep-27 12:32N 32°05' W 081°01'5 4.5
2014-Sep-27 11:22N 32°07' W 081°07'2 2.1
2014-Sep-27 10:23N 32°08' W 081°09'0 0.0
2014-Sep-27 09:09N 32°08' W 081°09'0 0.0
2014-Sep-27 08:21N 32°08' W 081°09'0 0.0
2014-Sep-27 06:26N 32°08' W 081°09'0 0.0
2014-Sep-27 05:33N 32°08' W 081°09'0 0.0
2014-Sep-27 04:33N 32°08' W 081°09'0 0.0
2014-Sep-27 03:29N 32°08' W 081°09'0 0.0
2014-Sep-27 01:32N 32°08' W 081°09'1 0.4
2014-Sep-26 22:10N 32°07' W 081°08'2 3.8
2014-Sep-26 21:33N 32°05' W 081°06'6 6.5
2014-Sep-26 20:34N 32°05' W 080°59'3011.5
2014-Sep-26 18:00N 32°00' W 080°24'234 7.6 040 / 121017.410.8 1.023.020.026.1
2014-Sep-25 11:05N 34°09' W 076°31'1221.7
2014-Sep-25 10:33N 34°17' W 076°20'2222.1
2014-Sep-25 09:34N 34°32' W 076°01'14117.6
2014-Sep-25 01:33N 36°52' W 075°53'1414.2
2014-Sep-25 00:33N 36°59' W 076°09'11 9.3
2014-Sep-24 23:23N 36°53' W 076°20'1 0.8
2014-Sep-24 22:19N 36°52' W 076°21'0 0.0
2014-Sep-24 21:32N 36°52' W 076°21'0 0.0
2014-Sep-24 17:28N 36°52' W 076°21'0 0.0
2014-Sep-24 16:11N 36°52' W 076°21'0 0.0
2014-Sep-24 15:15N 36°52' W 076°21'0 0.0
2014-Sep-24 13:17N 36°52' W 076°21'18 3.7
2014-Sep-24 08:23N 36°57' W 075°59'910.4
2014-Sep-24 07:31N 36°52' W 075°50'6 0.3
2014-Sep-23 07:32N 36°50' W 075°42'16812.6
2014-Sep-22 18:09N 39°17' W 073°58'1313.5
2014-Sep-22 17:10N 39°30' W 073°53'914.5
2014-Sep-22 16:33N 39°39' W 073°52'1514.8
2014-Sep-22 15:33N 39°54' W 073°51'1514.8
2014-Sep-22 14:33N 40°09' W 073°50'1414.6
2014-Sep-22 13:33N 40°23' W 073°49'1513.9
2014-Sep-22 12:30N 40°34' W 074°02'8 8.1
2014-Sep-22 11:33N 40°39' W 074°09'1 1.0
2014-Sep-22 10:33N 40°40' W 074°09'0 0.0
2014-Sep-22 09:33N 40°40' W 074°09'0 0.0
2014-Sep-22 08:33N 40°40' W 074°09'0 0.0
2014-Sep-22 07:31N 40°40' W 074°09'0 0.0
2014-Sep-22 06:32N 40°40' W 074°09'0 0.0
2014-Sep-22 05:33N 40°40' W 074°09'0 0.0
2014-Sep-22 04:32N 40°40' W 074°09'0 0.0
2014-Sep-22 03:33N 40°40' W 074°09'0 0.0
2014-Sep-22 02:30N 40°40' W 074°09'0 0.0
2014-Sep-22 01:31N 40°40' W 074°09'0 0.0
2014-Sep-22 00:29N 40°40' W 074°09'0 0.0
2014-Sep-21 23:32N 40°40' W 074°09'0 0.0
2014-Sep-21 22:21N 40°40' W 074°09'0 0.0
2014-Sep-21 21:30N 40°40' W 074°09'3 3.3
2014-Sep-21 20:34N 40°39' W 074°05'1713.0
2014-Sep-21 19:16N 40°27' W 073°49'810.7
2014-Sep-21 18:33N 40°23' W 073°41'1515.3
2014-Sep-21 17:33N 40°13' W 073°26'1814.9
2014-Sep-21 16:22N 40°06' W 073°04'1315.6
2014-Sep-21 15:34N 40°06' W 072°48'1716.5
2014-Sep-21 14:32N 40°05' W 072°26'1616.6
2014-Sep-21 13:33N 40°05' W 072°05'1716.6
2014-Sep-21 12:33N 40°04' W 071°43'1119.2
2014-Sep-21 12:00N 40°00' W 071°30'817.9 150 / 201016.210.8 2.023.519.623.4
2014-Sep-21 11:33N 40°04' W 071°21'1717.1
2014-Sep-21 10:33N 40°03' W 070°59'1717.2
2014-Sep-21 09:33N 40°02' W 070°36'1717.2
2014-Sep-21 08:33N 40°03' W 070°14'1717.3
2014-Sep-21 07:34N 40°02' W 069°51'  
Track history (hours):
 
Tides and Currents Weather Stations Pressure Air Temp Water Temp Dewpoint Dewpoint Depression Visibility Wind Speed Wind Dir Waves Ship Positions

Maersk Missouri

Owner: MAERSK LINE, LIMITED, Norfolk, VA. More information available from US FCC via Universal Licensing System and Coast Guard Vessel Documentation Center.

Last reported at 2014-Oct-01 07:33 UTC. Time now 2014-Oct-02 02:34 UTC.
Position N 29°25' W 094°50'.

Type: Cargo ship. MMSI: 369708000.

Date/timePositionNaut miles runAvg speedWind from/ knotsBaromVisibWave heightAir tempDewpointWater temp
2014-Oct-01 07:33N 29°25' W 094°50'1313.2
2014-Oct-01 06:33N 29°36' W 094°57'5 5.1
2014-Oct-01 05:29N 29°41' W 095°00'0 0.0
2014-Oct-01 04:33N 29°41' W 095°00'0 0.0
2014-Oct-01 03:33N 29°41' W 095°00'0 0.0
2014-Oct-01 02:31N 29°41' W 095°00'0 0.0
2014-Oct-01 01:31N 29°41' W 095°00'0 0.0
2014-Oct-01 00:32N 29°41' W 095°00'0 0.0
2014-Sep-30 23:33N 29°41' W 095°00'0 0.0
2014-Sep-30 22:33N 29°41' W 095°00'0 0.0
2014-Sep-30 21:31N 29°41' W 095°00'0 0.0
2014-Sep-30 20:32N 29°41' W 095°00'0 0.0
2014-Sep-30 19:29N 29°41' W 095°00'0 0.0
2014-Sep-30 18:33N 29°41' W 095°00'0 0.0
2014-Sep-30 17:33N 29°41' W 095°00'0 0.0
2014-Sep-30 16:25N 29°41' W 095°00'0 0.0
2014-Sep-30 15:32N 29°41' W 095°00'0 0.0
2014-Sep-30 14:32N 29°41' W 095°00'0 0.0
2014-Sep-30 13:33N 29°41' W 095°00'0 0.0
2014-Sep-30 12:33N 29°41' W 095°00'0 0.3
2014-Sep-30 11:33N 29°41' W 095°00'5 5.5
2014-Sep-30 10:33N 29°36' W 094°57'1313.0
2014-Sep-30 09:33N 29°25' W 094°50'15215.9
2014-Sep-30 00:00N 27°54' W 092°30'10818.0 090 / 131009.027.0 1.029.024.029.0
2014-Sep-29 18:00N 26°36' W 091°06'12620.9 360 / 51010.7 5.4 0.524.023.028.9
2014-Sep-29 12:00N 25°54' W 088°54'36620.3 180 / 51010.410.8 0.527.324.028.8
2014-Sep-28 18:00N 24°18' W 082°24'12020.0 120 / 111012.727.0 1.031.321.029.4
2014-Sep-28 12:00N 24°54' W 080°18'4719.3 090 / 71013.227.0 0.527.423.029.3
2014-Sep-28 09:33N 25°39' W 080°01'1919.2
2014-Sep-28 08:33N 25°58' W 079°59'1919.2
2014-Sep-28 07:33N 26°17' W 079°58'1919.4
2014-Sep-28 06:34N 26°36' W 079°58'711.9
2014-Sep-28 06:00N 26°42' W 079°54'1432.1 070 / 71018.110.8 0.525.822.929.1
2014-Sep-28 05:34N 26°56' W 079°57'2019.4
2014-Sep-28 04:33N 27°15' W 079°58'8719.1
2014-Sep-28 00:00N 28°42' W 080°06'20518.8 090 / 71014.027.0 1.027.021.028.0
2014-Sep-27 13:05N 32°02' W 080°55'610.6
2014-Sep-27 12:32N 32°05' W 081°01'5 4.5
2014-Sep-27 11:22N 32°07' W 081°07'2 2.1
2014-Sep-27 10:23N 32°08' W 081°09'0 0.0
2014-Sep-27 09:09N 32°08' W 081°09'0 0.0
2014-Sep-27 08:21N 32°08' W 081°09'0 0.0
2014-Sep-27 06:26N 32°08' W 081°09'0 0.0
2014-Sep-27 05:33N 32°08' W 081°09'0 0.0
2014-Sep-27 04:33N 32°08' W 081°09'0 0.0
2014-Sep-27 03:29N 32°08' W 081°09'0 0.0
2014-Sep-27 01:32N 32°08' W 081°09'1 0.4
2014-Sep-26 22:10N 32°07' W 081°08'2 3.8
2014-Sep-26 21:33N 32°05' W 081°06'6 6.5
2014-Sep-26 20:34N 32°05' W 080°59'3011.5
2014-Sep-26 18:00N 32°00' W 080°24'234 7.6 040 / 121017.410.8 1.023.020.026.1
2014-Sep-25 11:05N 34°09' W 076°31'1221.7
2014-Sep-25 10:33N 34°17' W 076°20'2222.1
2014-Sep-25 09:34N 34°32' W 076°01'14117.6
2014-Sep-25 01:33N 36°52' W 075°53'1414.2
2014-Sep-25 00:33N 36°59' W 076°09'11 9.3
2014-Sep-24 23:23N 36°53' W 076°20'1 0.8
2014-Sep-24 22:19N 36°52' W 076°21'0 0.0
2014-Sep-24 21:32N 36°52' W 076°21'0 0.0
2014-Sep-24 17:28N 36°52' W 076°21'0 0.0
2014-Sep-24 16:11N 36°52' W 076°21'0 0.0
2014-Sep-24 15:15N 36°52' W 076°21'0 0.0
2014-Sep-24 13:17N 36°52' W 076°21'18 3.7
2014-Sep-24 08:23N 36°57' W 075°59'910.4
2014-Sep-24 07:31N 36°52' W 075°50'6 0.3
2014-Sep-23 07:32N 36°50' W 075°42'16812.6
2014-Sep-22 18:09N 39°17' W 073°58'1313.5
2014-Sep-22 17:10N 39°30' W 073°53'914.5
2014-Sep-22 16:33N 39°39' W 073°52'1514.8
2014-Sep-22 15:33N 39°54' W 073°51'1514.8
2014-Sep-22 14:33N 40°09' W 073°50'1414.6
2014-Sep-22 13:33N 40°23' W 073°49'1513.9
2014-Sep-22 12:30N 40°34' W 074°02'8 8.1
2014-Sep-22 11:33N 40°39' W 074°09'1 1.0
2014-Sep-22 10:33N 40°40' W 074°09'0 0.0
2014-Sep-22 09:33N 40°40' W 074°09'0 0.0
2014-Sep-22 08:33N 40°40' W 074°09'0 0.0
2014-Sep-22 07:31N 40°40' W 074°09'0 0.0
2014-Sep-22 06:32N 40°40' W 074°09'0 0.0
2014-Sep-22 05:33N 40°40' W 074°09'0 0.0
2014-Sep-22 04:32N 40°40' W 074°09'0 0.0
2014-Sep-22 03:33N 40°40' W 074°09'0 0.0
2014-Sep-22 02:30N 40°40' W 074°09'0 0.0
2014-Sep-22 01:31N 40°40' W 074°09'0 0.0
2014-Sep-22 00:29N 40°40' W 074°09'0 0.0
2014-Sep-21 23:32N 40°40' W 074°09'0 0.0
2014-Sep-21 22:21N 40°40' W 074°09'0 0.0
2014-Sep-21 21:30N 40°40' W 074°09'3 3.3
2014-Sep-21 20:34N 40°39' W 074°05'1713.0
2014-Sep-21 19:16N 40°27' W 073°49'810.7
2014-Sep-21 18:33N 40°23' W 073°41'1515.3
2014-Sep-21 17:33N 40°13' W 073°26'1814.9
2014-Sep-21 16:22N 40°06' W 073°04'1315.6
2014-Sep-21 15:34N 40°06' W 072°48'1716.5
2014-Sep-21 14:32N 40°05' W 072°26'1616.6
2014-Sep-21 13:33N 40°05' W 072°05'1716.6
2014-Sep-21 12:33N 40°04' W 071°43'1119.2
2014-Sep-21 12:00N 40°00' W 071°30'817.9 150 / 201016.210.8 2.023.519.623.4
2014-Sep-21 11:33N 40°04' W 071°21'1717.1
2014-Sep-21 10:33N 40°03' W 070°59'1717.2
2014-Sep-21 09:33N 40°02' W 070°36'1717.2
2014-Sep-21 08:33N 40°03' W 070°14'1717.3
2014-Sep-21 07:34N 40°02' W 069°51'  

Dump ship's entire track history